createdAt,value
2022-12-18T00:01:10.380Z,28.28
2022-12-18T00:03:36.723Z,28.72
2022-12-18T00:06:03.221Z,29.15
2022-12-18T00:08:29.474Z,29.13
2022-12-18T00:10:55.725Z,28.59
2022-12-18T00:13:26.710Z,28.25
2022-12-18T00:15:54.198Z,29.03
2022-12-18T00:18:22.934Z,28.62
2022-12-18T00:20:49.170Z,29.25
2022-12-18T00:23:15.434Z,29.55
2022-12-18T00:25:41.701Z,28.78
2022-12-18T00:28:07.964Z,28.26
2022-12-18T00:30:34.209Z,28.99
2022-12-18T00:33:00.450Z,28.64
2022-12-18T00:35:26.767Z,28.53
2022-12-18T00:37:53.036Z,28.93
2022-12-18T00:40:19.301Z,29.11
2022-12-18T00:42:45.549Z,28.97
2022-12-18T00:45:13.158Z,29.00
2022-12-18T00:47:39.591Z,28.87
2022-12-18T00:50:06.376Z,28.48
2022-12-18T00:52:32.627Z,28.34
2022-12-18T00:55:01.850Z,28.64
2022-12-18T00:57:32.196Z,28.36
2022-12-18T00:59:58.441Z,27.96
2022-12-18T01:02:24.825Z,27.75
2022-12-18T01:04:51.247Z,28.34
2022-12-18T01:07:17.512Z,28.39
2022-12-18T01:09:43.773Z,28.40
2022-12-18T01:12:10.023Z,28.63
2022-12-18T01:14:36.318Z,29.18
2022-12-18T01:17:02.573Z,29.08
2022-12-18T01:19:28.834Z,28.98
2022-12-18T01:21:55.092Z,29.15
2022-12-18T01:24:21.353Z,29.35
2022-12-18T01:26:47.593Z,29.57
2022-12-18T01:29:13.843Z,29.77
2022-12-18T01:31:40.135Z,29.57
2022-12-18T01:34:06.459Z,29.68
2022-12-18T01:36:32.696Z,29.23
2022-12-18T01:38:58.935Z,29.58
2022-12-18T01:41:25.197Z,30.18
2022-12-18T01:43:51.457Z,28.93
2022-12-18T01:46:17.764Z,28.58
2022-12-18T01:48:44.026Z,29.52
2022-12-18T01:51:10.273Z,29.53
2022-12-18T01:53:37.000Z,30.00
2022-12-18T01:56:03.492Z,29.61
2022-12-18T01:58:29.749Z,29.39
2022-12-18T02:00:56.062Z,30.13
2022-12-18T02:03:22.466Z,29.86
2022-12-18T02:05:48.766Z,29.00
2022-12-18T02:08:15.056Z,29.42
2022-12-18T02:10:41.336Z,29.58
2022-12-18T02:13:07.580Z,29.61
2022-12-18T02:15:33.817Z,29.36
2022-12-18T02:18:00.093Z,29.16
2022-12-18T02:20:26.366Z,29.33
2022-12-18T02:22:52.650Z,29.37
2022-12-18T02:25:19.032Z,29.65
2022-12-18T02:27:45.294Z,29.66
2022-12-18T02:30:11.535Z,29.58
2022-12-18T02:32:37.804Z,29.42
2022-12-18T02:35:04.065Z,29.64
2022-12-18T02:37:30.317Z,29.61
2022-12-18T02:39:56.558Z,30.17
2022-12-18T02:42:22.816Z,30.00
2022-12-18T02:44:49.086Z,29.53
2022-12-18T02:47:15.337Z,29.54
2022-12-18T02:49:41.609Z,29.43
2022-12-18T02:52:07.878Z,29.20
2022-12-18T02:54:34.136Z,29.47
2022-12-18T02:57:00.374Z,30.17
2022-12-18T02:59:26.617Z,29.69
2022-12-18T03:01:52.969Z,30.03
2022-12-18T03:04:19.306Z,29.89
2022-12-18T03:06:45.553Z,29.31
2022-12-18T03:09:11.793Z,29.97
2022-12-18T03:11:38.056Z,29.40
2022-12-18T03:14:04.297Z,29.13
2022-12-18T03:16:30.603Z,28.91
2022-12-18T03:18:56.891Z,29.68
2022-12-18T03:21:23.153Z,30.10
2022-12-18T03:23:49.445Z,29.83
2022-12-18T03:26:15.711Z,29.02
2022-12-18T03:28:41.951Z,29.82
2022-12-18T03:31:08.237Z,30.00
2022-12-18T03:33:34.521Z,29.44
2022-12-18T03:36:00.780Z,29.62
2022-12-18T03:38:27.033Z,30.31
2022-12-18T03:40:53.285Z,29.99
2022-12-18T03:43:19.541Z,30.97
2022-12-18T03:45:45.819Z,30.48
2022-12-18T03:48:12.103Z,31.35
2022-12-18T03:50:38.345Z,31.12
2022-12-18T03:53:04.601Z,30.50
2022-12-18T03:55:30.845Z,30.26
2022-12-18T03:57:57.082Z,29.56
2022-12-18T04:00:23.364Z,27.95
2022-12-18T04:02:49.657Z,29.01
2022-12-18T04:05:15.908Z,30.15
2022-12-18T04:07:42.165Z,29.09
2022-12-18T04:10:08.426Z,29.12
2022-12-18T04:12:34.664Z,29.23
2022-12-18T04:15:00.899Z,28.68
2022-12-18T04:17:27.149Z,28.08
2022-12-18T04:19:53.414Z,28.11
2022-12-18T04:22:19.666Z,28.24
2022-12-18T04:24:46.843Z,28.96
2022-12-18T04:27:13.106Z,29.80
2022-12-18T04:29:39.344Z,29.61
2022-12-18T04:32:05.589Z,30.16
2022-12-18T04:34:31.840Z,29.27
2022-12-18T04:36:58.089Z,30.09
2022-12-18T04:39:24.708Z,29.92
2022-12-18T04:41:51.346Z,29.15
2022-12-18T04:44:17.643Z,28.89
2022-12-18T04:46:43.942Z,28.42
2022-12-18T04:49:10.212Z,28.88
2022-12-18T04:51:36.450Z,29.95
2022-12-18T04:54:02.741Z,29.25
2022-12-18T04:56:28.992Z,28.63
2022-12-18T04:58:55.233Z,28.57
2022-12-18T05:01:21.580Z,27.39
2022-12-18T05:03:48.013Z,26.69
2022-12-18T05:06:14.297Z,27.71
2022-12-18T05:08:40.567Z,26.86
2022-12-18T05:11:07.456Z,26.91
2022-12-18T05:13:33.760Z,26.90
2022-12-18T05:16:00.041Z,26.67
2022-12-18T05:18:26.366Z,26.74
2022-12-18T05:20:52.606Z,26.49
2022-12-18T05:23:18.846Z,27.93
2022-12-18T05:25:45.128Z,27.27
2022-12-18T05:28:11.402Z,27.15
2022-12-18T05:30:37.640Z,27.66
2022-12-18T05:33:03.886Z,28.22
2022-12-18T05:35:30.129Z,28.29
2022-12-18T05:37:56.369Z,28.84
2022-12-18T05:40:22.621Z,28.86
2022-12-18T05:42:48.877Z,28.91
2022-12-18T05:45:15.152Z,29.56
2022-12-18T05:47:41.428Z,29.55
2022-12-18T05:50:07.684Z,29.33
2022-12-18T05:52:33.952Z,29.16
2022-12-18T05:55:00.192Z,29.49
2022-12-18T05:57:26.469Z,29.25
2022-12-18T05:59:52.715Z,29.53
2022-12-18T06:02:19.085Z,28.54
2022-12-18T06:04:45.446Z,28.92
2022-12-18T06:07:11.701Z,29.09
2022-12-18T06:09:37.962Z,28.50
2022-12-18T06:12:04.201Z,28.49
2022-12-18T06:14:30.442Z,28.46
2022-12-18T06:16:56.696Z,28.57
2022-12-18T06:19:22.939Z,29.05
2022-12-18T06:21:49.213Z,28.75
2022-12-18T06:24:15.484Z,28.50
2022-12-18T06:26:41.729Z,28.08
2022-12-18T06:29:07.997Z,28.49
2022-12-18T06:31:34.281Z,28.60
2022-12-18T06:34:00.565Z,27.07
2022-12-18T06:36:27.615Z,25.33
2022-12-18T06:38:53.877Z,26.54
2022-12-18T06:41:20.133Z,26.36
2022-12-18T06:43:46.373Z,24.43
2022-12-18T06:46:12.797Z,24.33
2022-12-18T06:48:39.117Z,25.92
2022-12-18T06:51:05.395Z,26.55
2022-12-18T06:53:31.638Z,27.78
2022-12-18T06:55:57.873Z,28.41
2022-12-18T06:58:24.141Z,27.01
2022-12-18T07:00:50.431Z,28.28
2022-12-18T07:03:16.740Z,26.36
2022-12-18T07:05:42.990Z,26.96
2022-12-18T07:08:09.244Z,26.40
2022-12-18T07:10:36.509Z,26.48
2022-12-18T07:13:02.883Z,24.83
2022-12-18T07:15:29.133Z,25.35
2022-12-18T07:17:55.379Z,26.29
2022-12-18T07:20:21.642Z,25.15
2022-12-18T07:22:50.828Z,24.33
2022-12-18T07:25:21.010Z,24.99
2022-12-18T07:27:47.265Z,25.30
2022-12-18T07:30:13.512Z,25.42
2022-12-18T07:32:39.754Z,26.39
2022-12-18T07:35:05.997Z,26.21
2022-12-18T07:37:32.249Z,24.95
2022-12-18T07:39:58.513Z,24.95
2022-12-18T07:42:24.773Z,25.91
2022-12-18T07:44:51.995Z,26.13
2022-12-18T07:47:18.256Z,26.45
2022-12-18T07:49:44.521Z,25.25
2022-12-18T07:52:10.795Z,25.47
2022-12-18T07:54:37.041Z,23.99
2022-12-18T07:57:03.298Z,24.13
2022-12-18T07:59:29.562Z,25.10
2022-12-18T08:01:56.048Z,26.33
2022-12-18T08:04:22.389Z,26.17
2022-12-18T08:06:48.670Z,24.12
2022-12-18T08:09:14.943Z,22.98
2022-12-18T08:11:41.311Z,24.40
2022-12-18T08:14:07.585Z,25.41
2022-12-18T08:16:33.870Z,24.85
2022-12-18T08:19:00.121Z,23.54
2022-12-18T08:21:26.377Z,24.41
2022-12-18T08:23:52.817Z,24.66
2022-12-18T08:26:19.140Z,24.79
2022-12-18T08:28:45.735Z,25.22
2022-12-18T08:31:12.041Z,24.76
2022-12-18T08:33:38.602Z,25.50
2022-12-18T08:36:05.198Z,25.69
2022-12-18T08:38:31.457Z,25.78
2022-12-18T08:40:57.756Z,25.54
2022-12-18T08:43:24.028Z,24.66
2022-12-18T08:45:50.356Z,23.80
2022-12-18T08:48:20.665Z,24.48
2022-12-18T08:50:48.330Z,25.24
2022-12-18T08:53:14.700Z,24.62
2022-12-18T08:55:43.545Z,25.12
2022-12-18T08:58:12.053Z,26.00
2022-12-18T09:00:38.328Z,25.25
2022-12-18T09:03:04.625Z,24.62
2022-12-18T09:05:30.944Z,25.00
2022-12-18T09:07:57.188Z,24.77
2022-12-18T09:10:23.523Z,23.92
2022-12-18T09:12:49.778Z,24.83
2022-12-18T09:15:16.108Z,25.94
2022-12-18T09:17:42.472Z,24.98
2022-12-18T09:20:08.718Z,24.16
2022-12-18T09:22:34.957Z,24.21
2022-12-18T09:25:01.226Z,25.37
2022-12-18T09:27:27.481Z,28.33
2022-12-18T09:29:53.725Z,31.37
2022-12-18T09:32:22.444Z,24.65
2022-12-18T09:34:49.049Z,24.62
2022-12-18T09:37:15.288Z,25.12
2022-12-18T09:39:41.544Z,25.86
2022-12-18T09:42:07.791Z,24.84
2022-12-18T09:44:34.072Z,24.33
2022-12-18T09:47:00.368Z,24.94
2022-12-18T09:49:26.625Z,25.93
2022-12-18T09:51:52.884Z,25.35
2022-12-18T09:54:19.142Z,25.09
2022-12-18T09:56:45.577Z,24.85
2022-12-18T09:59:11.814Z,25.65
2022-12-18T10:01:44.258Z,26.56
2022-12-18T10:04:11.042Z,26.44
2022-12-18T10:06:37.354Z,26.04
2022-12-18T10:09:03.591Z,25.37
2022-12-18T10:11:29.835Z,25.95
2022-12-18T10:13:56.077Z,26.36
2022-12-18T10:16:22.384Z,26.68
2022-12-18T10:18:48.695Z,27.81
2022-12-18T10:21:14.935Z,30.11
2022-12-18T10:23:45.083Z,29.63
2022-12-18T10:26:14.379Z,28.97
2022-12-18T10:28:41.619Z,29.56
2022-12-18T10:31:08.258Z,29.55
2022-12-18T10:33:34.554Z,29.48
2022-12-18T10:36:00.817Z,29.59
2022-12-18T10:38:27.072Z,30.59
2022-12-18T10:40:53.423Z,30.21
2022-12-18T10:43:19.674Z,30.94
2022-12-18T10:45:45.931Z,30.85
2022-12-18T10:48:12.204Z,29.53
2022-12-18T10:51:09.832Z,29.13
2022-12-18T10:53:24.673Z,30.13
2022-12-18T10:55:51.457Z,29.69
2022-12-18T10:58:19.979Z,29.18
2022-12-18T11:00:49.798Z,28.48
2022-12-18T11:03:16.113Z,27.88
2022-12-18T11:05:42.449Z,27.67
2022-12-18T11:08:08.693Z,27.40
2022-12-18T11:10:34.934Z,27.00
2022-12-18T11:13:01.209Z,27.84
2022-12-18T11:15:29.106Z,28.31
2022-12-18T11:17:55.380Z,28.41
2022-12-18T11:20:21.622Z,27.34
2022-12-18T11:22:47.882Z,27.56
2022-12-18T11:28:00.353Z,27.82
2022-12-18T11:30:26.748Z,27.77
2022-12-18T11:32:52.995Z,27.96
2022-12-18T11:35:19.234Z,28.05
2022-12-18T11:37:45.485Z,27.95
2022-12-18T11:40:11.734Z,28.15
2022-12-18T11:42:38.001Z,28.24
2022-12-18T11:45:04.263Z,28.43
2022-12-18T11:47:30.534Z,28.29
2022-12-18T11:49:56.772Z,28.52
2022-12-18T11:52:23.026Z,28.43
2022-12-18T11:54:49.284Z,28.48
2022-12-18T11:57:15.530Z,27.99
2022-12-18T11:59:41.769Z,28.07
2022-12-18T12:02:08.097Z,27.88
2022-12-18T12:04:34.414Z,28.00
2022-12-18T12:07:03.208Z,29.08
2022-12-18T12:09:29.748Z,28.45
2022-12-18T12:11:56.006Z,29.10
2022-12-18T12:14:22.237Z,28.88
2022-12-18T12:16:48.515Z,28.70
2022-12-18T12:19:14.770Z,29.06
2022-12-18T12:21:41.020Z,30.36
2022-12-18T12:24:07.285Z,30.87
2022-12-18T12:26:33.526Z,29.56
2022-12-18T12:28:59.933Z,28.82
2022-12-18T12:31:26.240Z,28.92
2022-12-18T12:33:52.518Z,29.03
2022-12-18T12:36:18.760Z,28.82
2022-12-18T12:38:51.418Z,29.21
2022-12-18T12:41:18.325Z,28.76
2022-12-18T12:43:50.371Z,28.83
2022-12-18T12:46:17.498Z,28.10
2022-12-18T12:48:44.141Z,28.60
2022-12-18T12:51:10.567Z,28.57
2022-12-18T12:53:37.157Z,28.74
2022-12-18T12:56:04.437Z,28.91
2022-12-18T12:58:30.789Z,30.05
2022-12-18T13:00:57.157Z,29.75
2022-12-18T13:03:23.513Z,29.69
2022-12-18T13:05:50.013Z,29.41
2022-12-18T13:08:16.259Z,30.42
2022-12-18T13:10:44.637Z,29.28
2022-12-18T13:13:11.010Z,28.79
2022-12-18T13:15:39.772Z,29.65
2022-12-18T13:18:06.316Z,29.55
2022-12-18T13:20:34.031Z,30.28
2022-12-18T13:23:00.961Z,29.53
2022-12-18T13:25:27.498Z,28.99
2022-12-18T13:27:53.758Z,28.95
2022-12-18T13:30:22.122Z,29.49
2022-12-18T13:32:49.433Z,30.14
2022-12-18T13:35:15.686Z,30.00
2022-12-18T13:37:42.157Z,28.80
2022-12-18T13:40:08.800Z,29.11
2022-12-18T13:42:35.057Z,29.74
2022-12-18T13:45:01.398Z,29.71
2022-12-18T13:47:27.742Z,29.02
2022-12-18T13:49:54.257Z,29.31
2022-12-18T13:52:20.520Z,29.18
2022-12-18T13:54:46.759Z,28.93
2022-12-18T13:57:14.504Z,29.16
2022-12-18T13:59:42.701Z,29.48
2022-12-18T14:02:09.112Z,29.65
2022-12-18T14:04:35.575Z,29.09
2022-12-18T14:07:01.844Z,29.37
2022-12-18T14:09:28.109Z,29.13
2022-12-18T14:11:56.056Z,29.38
2022-12-18T14:14:22.760Z,29.65
2022-12-18T14:16:50.401Z,30.07
2022-12-18T14:19:16.866Z,29.69
2022-12-18T14:21:43.107Z,29.34
2022-12-18T14:24:09.345Z,29.45
2022-12-18T14:26:35.604Z,30.46
2022-12-18T14:29:01.866Z,29.65
2022-12-18T14:31:28.123Z,31.70
2022-12-18T14:33:54.376Z,35.89
2022-12-18T14:36:20.630Z,34.01
2022-12-18T14:38:46.890Z,31.47
2022-12-18T14:41:13.149Z,31.00
2022-12-18T14:43:39.738Z,29.02
2022-12-18T14:46:06.241Z,30.21
2022-12-18T14:48:32.536Z,31.45
2022-12-18T14:50:58.782Z,31.05
2022-12-18T14:53:25.024Z,30.06
2022-12-18T14:55:51.417Z,30.08
2022-12-18T14:58:17.664Z,31.13
2022-12-18T15:00:43.921Z,32.89
2022-12-18T15:03:10.194Z,31.95
2022-12-18T15:05:36.494Z,31.35
2022-12-18T15:08:02.757Z,31.15
2022-12-18T15:10:29.007Z,31.28
2022-12-18T15:12:55.249Z,30.56
2022-12-18T15:15:21.597Z,30.39
2022-12-18T15:17:47.838Z,29.84
2022-12-18T15:20:14.097Z,29.51
2022-12-18T15:22:40.358Z,29.16
2022-12-18T15:25:06.597Z,31.50
2022-12-18T15:27:32.847Z,30.87
2022-12-18T15:29:59.111Z,28.63
2022-12-18T15:32:26.389Z,30.59
2022-12-18T15:34:52.630Z,30.29
2022-12-18T15:37:18.892Z,29.98
2022-12-18T15:39:45.133Z,29.53
2022-12-18T15:42:11.370Z,27.32
2022-12-18T15:44:37.628Z,26.79
2022-12-18T15:47:03.890Z,27.49
2022-12-18T15:49:30.139Z,29.33
2022-12-18T15:51:56.383Z,33.38
2022-12-18T15:54:22.630Z,32.57
2022-12-18T15:56:48.870Z,32.63
2022-12-18T15:59:15.964Z,31.64
2022-12-18T16:01:42.807Z,29.30
2022-12-18T16:04:09.383Z,28.72
2022-12-18T16:06:51.079Z,28.45
2022-12-18T16:09:26.198Z,28.40
2022-12-18T16:11:52.914Z,28.97
2022-12-18T16:14:19.169Z,30.68
2022-12-18T16:16:45.422Z,28.90
2022-12-18T16:19:11.673Z,27.81
2022-12-18T16:21:37.925Z,28.29
2022-12-18T16:24:04.177Z,27.78
2022-12-18T16:26:30.427Z,28.27
2022-12-18T16:28:56.674Z,28.18
2022-12-18T16:31:22.969Z,28.66
2022-12-18T16:33:49.264Z,28.20
2022-12-18T16:36:15.516Z,28.69
2022-12-18T16:38:41.791Z,28.92
2022-12-18T16:41:08.038Z,30.25
2022-12-18T16:43:34.277Z,28.93
2022-12-18T16:46:00.595Z,27.85
2022-12-18T16:48:26.956Z,29.77
2022-12-18T16:50:53.197Z,31.50
2022-12-18T16:53:19.459Z,30.66
2022-12-18T16:55:46.280Z,30.95
2022-12-18T16:58:12.532Z,31.40
2022-12-18T17:00:38.814Z,31.74
2022-12-18T17:03:05.237Z,34.02
2022-12-18T17:05:31.574Z,33.89
2022-12-18T17:07:57.815Z,31.75
2022-12-18T17:10:24.077Z,32.79
2022-12-18T17:12:50.343Z,31.86
2022-12-18T17:15:16.594Z,33.82
2022-12-18T17:17:43.514Z,33.86
2022-12-18T17:20:09.757Z,36.17
2022-12-18T17:22:36.000Z,41.90
2022-12-18T17:25:02.258Z,38.92
2022-12-18T17:27:28.508Z,35.46
2022-12-18T17:29:54.744Z,30.66
2022-12-18T17:32:21.005Z,31.41
2022-12-18T17:34:47.243Z,29.62
2022-12-18T17:37:13.521Z,28.93
2022-12-18T17:39:39.773Z,29.48
2022-12-18T17:42:06.037Z,29.87
2022-12-18T17:44:33.989Z,28.16
2022-12-18T17:47:00.292Z,27.45
2022-12-18T17:49:26.584Z,26.70
2022-12-18T17:51:52.827Z,27.11
2022-12-18T17:54:19.075Z,28.28
2022-12-18T17:56:45.334Z,28.39
2022-12-18T17:59:11.589Z,30.08
2022-12-18T18:01:44.001Z,32.75
2022-12-18T18:04:11.166Z,33.97
2022-12-18T18:06:39.068Z,33.94
2022-12-18T18:09:05.762Z,34.01
2022-12-18T18:11:34.391Z,32.75
2022-12-18T18:14:00.767Z,29.55
2022-12-18T18:16:27.072Z,27.70
2022-12-18T18:18:53.342Z,28.30
2022-12-18T18:21:19.606Z,30.55
2022-12-18T18:23:47.073Z,26.93
2022-12-18T18:26:15.115Z,28.97
2022-12-18T18:28:41.441Z,31.07
2022-12-18T18:31:07.744Z,30.38
2022-12-18T18:33:34.070Z,30.69
2022-12-18T18:36:00.333Z,29.52
2022-12-18T18:38:26.592Z,31.82
2022-12-18T18:40:52.840Z,34.80
2022-12-18T18:43:19.086Z,29.72
2022-12-18T18:45:45.386Z,27.64
2022-12-18T18:48:13.562Z,27.61
2022-12-18T18:50:39.816Z,29.87
2022-12-18T18:53:06.081Z,32.34
2022-12-18T18:55:32.352Z,37.62
2022-12-18T18:57:58.714Z,40.35
2022-12-18T19:00:26.485Z,38.76
2022-12-18T19:02:57.669Z,37.80
2022-12-18T19:05:26.621Z,38.76
2022-12-18T19:07:52.922Z,38.59
2022-12-18T19:10:19.193Z,38.35
2022-12-18T19:12:45.450Z,42.86
2022-12-18T19:15:11.698Z,35.78
2022-12-18T19:17:40.001Z,32.38
2022-12-18T19:20:06.533Z,31.57
2022-12-18T19:22:34.609Z,32.26
2022-12-18T19:25:00.868Z,32.06
2022-12-18T19:27:27.119Z,31.06
2022-12-18T19:29:53.354Z,30.20
2022-12-18T19:32:19.659Z,29.53
2022-12-18T19:34:45.993Z,28.78
2022-12-18T19:37:13.979Z,33.93
2022-12-18T19:39:40.424Z,40.18
2022-12-18T19:42:06.661Z,37.69
2022-12-18T19:44:32.917Z,37.00
2022-12-18T19:46:59.163Z,35.07
2022-12-18T19:49:25.402Z,33.34
2022-12-18T19:51:51.654Z,32.80
2022-12-18T19:54:18.070Z,30.82
2022-12-18T19:56:44.362Z,29.61
2022-12-18T19:59:10.626Z,29.61
2022-12-18T20:01:37.040Z,29.42
2022-12-18T20:04:03.556Z,29.34
2022-12-18T20:06:30.337Z,31.44
2022-12-18T20:09:00.067Z,29.37
2022-12-18T20:11:27.255Z,28.64
2022-12-18T20:13:53.505Z,27.79
2022-12-18T20:16:19.772Z,26.70
2022-12-18T20:18:46.182Z,26.75
2022-12-18T20:21:14.264Z,27.17
2022-12-18T20:23:41.013Z,27.11
2022-12-18T20:26:08.548Z,26.86
2022-12-18T20:28:35.030Z,27.95
2022-12-18T20:31:01.305Z,29.26
2022-12-18T20:33:27.655Z,30.66
2022-12-18T20:35:53.894Z,46.71
2022-12-18T20:38:20.514Z,46.64
2022-12-18T20:40:47.936Z,38.01
2022-12-18T20:43:17.310Z,40.86
2022-12-18T20:45:43.880Z,33.23
2022-12-18T20:48:12.134Z,32.28
2022-12-18T20:50:38.377Z,30.76
2022-12-18T20:53:04.633Z,33.46
2022-12-18T20:55:30.901Z,36.43
2022-12-18T20:57:57.150Z,35.56
2022-12-18T21:00:23.389Z,34.73
2022-12-18T21:02:49.687Z,35.19
2022-12-18T21:05:15.968Z,36.63
2022-12-18T21:07:42.214Z,35.69
2022-12-18T21:10:08.457Z,30.90
2022-12-18T21:12:40.542Z,29.23
2022-12-18T21:15:15.941Z,29.59
2022-12-18T21:17:44.611Z,28.51
2022-12-18T21:20:11.398Z,27.97
2022-12-18T21:22:43.919Z,27.99
2022-12-18T21:25:10.162Z,29.60
2022-12-18T21:27:36.405Z,35.00
2022-12-18T21:30:02.663Z,35.09
2022-12-18T21:32:29.296Z,33.53
2022-12-18T21:34:59.628Z,31.78
2022-12-18T21:37:25.878Z,31.60
2022-12-18T21:39:52.154Z,34.00
2022-12-18T21:42:18.555Z,35.45
2022-12-18T21:44:44.999Z,36.29
2022-12-18T21:47:21.537Z,36.56
2022-12-18T21:49:49.355Z,36.73
2022-12-18T21:52:16.387Z,33.41
2022-12-18T21:54:42.630Z,31.57
2022-12-18T21:57:08.874Z,34.29
2022-12-18T21:59:35.121Z,34.43
2022-12-18T22:02:01.448Z,33.21
2022-12-18T22:04:27.812Z,33.82
2022-12-18T22:06:54.454Z,34.28
2022-12-18T22:09:20.693Z,34.22
2022-12-18T22:11:46.946Z,34.02
2022-12-18T22:14:13.193Z,35.23
2022-12-18T22:16:39.429Z,34.73
2022-12-18T22:19:06.029Z,33.14
2022-12-18T22:21:32.284Z,36.15
2022-12-18T22:23:58.530Z,35.92
2022-12-18T22:26:24.766Z,34.94
2022-12-18T22:28:51.106Z,35.10
2022-12-18T22:31:17.389Z,35.06
2022-12-18T22:33:43.650Z,36.10
2022-12-18T22:36:11.617Z,35.02
2022-12-18T22:38:37.878Z,32.37
2022-12-18T22:41:04.160Z,31.36
2022-12-18T22:43:30.418Z,29.84
2022-12-18T22:45:56.665Z,28.87
2022-12-18T22:48:23.155Z,28.20
2022-12-18T22:50:49.402Z,28.07
2022-12-18T22:53:17.195Z,27.83
2022-12-18T22:55:43.434Z,26.71
2022-12-18T22:58:09.690Z,26.42
2022-12-18T23:00:35.938Z,25.82
2022-12-18T23:03:02.379Z,26.05
2022-12-18T23:05:28.742Z,25.70
2022-12-18T23:07:55.017Z,27.20
2022-12-18T23:10:21.266Z,26.42
2022-12-18T23:12:47.534Z,26.71
2022-12-18T23:15:13.774Z,26.66
2022-12-18T23:17:42.382Z,27.41
2022-12-18T23:20:08.652Z,27.21
2022-12-18T23:22:34.895Z,26.53
2022-12-18T23:25:01.141Z,26.37
2022-12-18T23:27:27.385Z,26.48
2022-12-18T23:29:53.633Z,26.76
2022-12-18T23:32:21.471Z,25.89
2022-12-18T23:34:47.712Z,25.41
2022-12-18T23:37:24.951Z,26.00
2022-12-18T23:40:00.200Z,25.57
2022-12-18T23:42:26.481Z,25.75
2022-12-18T23:44:54.277Z,25.52
2022-12-18T23:47:20.521Z,25.82
2022-12-18T23:49:46.782Z,24.95
2022-12-18T23:52:13.389Z,25.03
2022-12-18T23:54:39.664Z,24.47
2022-12-18T23:57:05.906Z,25.87
2022-12-18T23:59:32.153Z,26.30
